EW7535 Weather Reports


Display with metric or nautical units.
time (UTC)temp
F
wind
direction
speed
MPH
gust
MPH
rain 1hr
in
rain 24hr
in
rain mn
in
humidity
%
barometer
mb
20240619221605 105 279 3.0 6.0 0.00 0.00 0.00 11 1000.4
20240619220133 104 246 0.0 9.0 0.00 0.00 0.00 13 1000.5
20240619214553 103 245 0.0 7.0 0.00 0.00 0.00 13 1000.7
20240619213152 102 238 5.0 11.0 0.00 0.00 0.00 14 1000.9
20240619211550 102 207 4.0 8.0 0.00 0.00 0.00 14 1001.2
20240619210054 105 275 3.0 10.0 0.00 0.00 0.00 13 1001.4
20240619204546 105 151 3.0 10.0 0.00 0.00 0.00 12 1001.6
20240619203142 104 262 1.0 7.0 0.00 0.00 0.00 14 1001.9
20240619201541 103 263 1.0 10.0 0.00 0.00 0.00 13 1002.1
20240619200039 105 102 0.0 4.0 0.00 0.00 0.00 12 1002.4
20240619194536 101 158 2.0 7.0 0.00 0.00 0.00 16 1002.5
20240619193134 100 321 1.0 8.0 0.00 0.00 0.00 16 1002.8
20240619191534 99 346 0.0 6.0 0.00 0.00 0.00 15 1002.8
20240619190031 99 113 1.0 5.0 0.00 0.00 0.00 16 1003.0
20240619184530 96 286 2.0 8.0 0.00 0.00 0.00 21 1003.2
20240619183131 98 202 2.0 6.0 0.00 0.00 0.00 22 1003.4
20240619181530 98 199 0.0 5.0 0.00 0.00 0.00 22 1003.4
20240619180028 98 270 1.0 5.0 0.00 0.00 0.00 21 1003.6
20240619174524 96 177 0.0 3.0 0.00 0.00 0.00 27 1003.7
20240619173127 95 58 1.0 8.0 0.00 0.00 0.00 24 1003.8
20240619171523 96 157 1.0 6.0 0.00 0.00 0.00 25 1003.9
20240619170020 94 205 0.0 7.0 0.00 0.00 0.00 27 1003.9
20240619164519 94 96 3.0 7.0 0.00 0.00 0.00 26 1004.0
20240619163116 93 165 2.0 5.0 0.00 0.00 0.00 28 1004.0
20240619161515 90 130 3.0 8.0 0.00 0.00 0.00 28 1004.0
20240619160016 91 202 1.0 5.0 0.00 0.00 0.00 28 1004.1
20240619154513 89 113 2.0 6.0 0.00 0.00 0.00 28 1004.2
20240619153110 88 109 1.0 6.0 0.00 0.00 0.00 29 1004.2
20240619151513 88 134 1.0 5.0 0.00 0.00 0.00 29 1004.2
20240619150008 88 110 0.0 3.0 0.00 0.00 0.00 30 1004.2
20240619144505 86 129 0.0 3.0 0.00 0.00 0.00 31 1004.2
20240619143111 84 122 0.0 3.0 0.00 0.00 0.00 31 1004.1
20240619141628 84 102 0.0 3.0 0.00 0.00 0.00 32 1004.0
20240619140058 81 105 0.0 3.0 0.00 0.00 0.00 34 1003.9
20240619134602 79 119 2.0 6.0 0.00 0.00 0.00 36 1003.9
20240619133056 77 110 2.0 5.0 0.00 0.00 0.00 37 1003.6
20240619131555 77 114 0.0 2.0 0.00 0.00 0.00 37 1003.4
20240619130053 75 94 0.0 0.0 0.00 0.00 0.00 40 1003.3
20240619124551 74 94 0.0 0.0 0.00 0.00 0.00 40 1003.2
20240619123050 75 94 0.0 0.0 0.00 0.00 0.00 40 1003.1
20240619121550 75 97 0.0 0.0 0.00 0.00 0.00 39 1003.1
20240619120047 75 101 0.0 0.0 0.00 0.00 0.00 39 1003.2
20240619114544 76 93 0.0 0.0 0.00 0.00 0.00 38 1003.0
20240619113043 77 96 0.0 2.0 0.00 0.00 0.00 37 1003.0
20240619111543 78 108 1.0 5.0 0.00 0.00 0.00 37 1002.9
20240619110047 77 103 1.0 5.0 0.00 0.00 0.00 38 1002.7
20240619104544 77 94 1.0 3.0 0.00 0.00 0.00 37 1002.5
20240619103042 77 90 0.0 3.0 0.00 0.00 0.00 37 1002.4
20240619101550 77 80 1.0 4.0 0.00 0.00 0.00 37 1002.4
20240619100036 76 91 0.0 0.0 0.00 0.00 0.00 35 1002.4
20240619094534 77 84 0.0 0.0 0.00 0.00 0.00 34 1002.3
20240619093040 77 84 0.0 3.0 0.00 0.00 0.00 33 1002.1
20240619091531 78 96 0.0 0.0 0.00 0.00 0.00 33 1002.1
20240619090056 78 112 2.0 4.0 0.00 0.00 0.00 32 1002.1
20240619084527 80 14 0.0 0.0 0.00 0.00 0.00 30 1002.1
20240619083035 80 349 0.0 1.0 0.00 0.00 0.00 29 1002.1
20240619081533 81 287 0.0 2.0 0.00 0.00 0.00 28 1002.1
20240619080020 82 281 0.0 1.0 0.00 0.00 0.00 27 1002.2
20240619074518 83 291 2.0 5.0 0.00 0.00 0.00 27 1002.2
20240619073016 82 283 3.0 5.0 0.00 0.00 0.00 28 1002.2
20240619071516 82 283 2.0 4.0 0.00 0.00 0.00 28 1002.2
20240619070013 83 288 2.0 5.0 0.00 0.00 0.00 28 1002.2
20240619064513 83 256 0.0 3.0 0.00 0.00 0.00 28 1002.2
20240619063013 84 285 3.0 5.0 0.00 0.00 0.00 27 1002.2
20240619061520 85 289 4.0 8.0 0.00 0.00 0.00 27 1002.1
20240619060012 85 278 4.0 8.0 0.00 0.00 0.00 28 1002.1
20240619054508 85 275 3.0 7.0 0.00 0.00 0.00 27 1001.9
20240619053008 86 278 4.0 8.0 0.00 0.00 0.00 27 1001.9
20240619051505 86 290 3.0 7.0 0.00 0.00 0.00 27 1001.7
20240619050005 87 269 4.0 7.0 0.00 0.00 0.00 26 1001.5
20240619044508 88 284 5.0 10.0 0.00 0.00 0.00 24 1001.4
20240619043003 89 284 6.0 11.0 0.00 0.00 0.00 22 1001.1
20240619041506 89 278 4.0 8.0 0.00 0.00 0.00 22 1000.8
20240619040003 90 269 4.0 9.0 0.00 0.00 0.00 21 1000.6
20240619034501 90 255 5.0 9.0 0.00 0.00 0.00 21 1000.3
20240619033101 91 271 4.0 7.0 0.00 0.00 0.00 19 1000.1
20240619031504 91 286 3.0 7.0 0.00 0.00 0.00 18 999.8
20240619030006 92 288 2.0 4.0 0.00 0.00 0.00 14 999.5
20240619024501 94 243 0.0 1.0 0.00 0.00 0.00 13 999.2
20240619023119 96 249 1.0 5.0 0.00 0.00 0.00 12 999.0
20240619021501 98 239 0.0 5.0 0.00 0.00 0.00 12 998.8
20240619020001 99 241 3.0 5.0 0.00 0.00 0.00 11 998.7
20240619014502 101 238 2.0 8.0 0.00 0.00 0.00 10 998.6
20240619013113 101 274 3.0 7.0 0.00 0.00 0.00 10 998.4
20240619011602 103 240 4.0 7.0 0.00 0.00 0.00 10 998.3
20240619010104 104 245 0.0 5.0 0.00 0.00 0.00 10 998.2
20240619004603 105 231 1.0 5.0 0.00 0.00 0.00 10 998.2
20240619003108 104 197 1.0 6.0 0.00 0.00 0.00 11 998.1
20240619001557 104 238 0.0 10.0 0.00 0.00 0.00 10 998.1
20240619000106 103 278 5.0 11.0 0.00 0.00 0.00 9 998.2
20240618234600 105 245 2.0 6.0 0.00 0.00 0.00 9 998.3
20240618233101 106 236 2.0 5.0 0.00 0.00 0.00 10 998.3
20240618231554 104 300 1.0 10.0 0.00 0.00 0.00 11 998.5
20240618230054 104 271 0.0 14.0 0.00 0.00 0.00 10 998.6
20240618224606 105 274 6.0 12.0 0.00 0.00 0.00 9 998.7
20240618223052 104 269 2.0 9.0 0.00 0.00 0.00 10 998.8